Portada
METAR-TAF:

METAR-TAF

Aeropuertos :

Aeropuerto de la Isla de Man

Isla de Man,

latitud: 54-05N, longitud: 004-38W, altitud: 17 m

Observación

El informe se hizo hace 20 minutos, a las 02:50 UTC
Viento 9 kt del norte-noroeste
Temperatura 12°C
Humedad 94%
Presión 1013 hPa
Visibilidad 10 km o más
Escasas nubes a una altura de 1000 ft
Nubes dispersas a una altura de 3500 ft

METAR: EGNS 030250Z 34009KT 9999 FEW010 SCT035 12/11 Q1013

Hora: 04:10 (03:10 UTC)

Pronóstico

El informe se hizo hace 10 horas y 10 minutos, a las 17:00 UTC
Pronóstico válido del 02 a las 18 UTC al 02 a las 21 UTC
Viento 10 kt del norte-noroeste
Visibilidad 10 km o más
sin nubes por debajo de 1500 m y sin presencia de cumulonimbus.
Probabilidad 30% :
Temporalmente
del 02 a las 19 UTC al 02 a las 21 UTC
Visibilidad: 9000 m
chaparrones de lluvia

TAF: EGNS 021700Z 0218/0221 34010KT CAVOK PROB30 TEMPO 0219/0221 9000 SHRA

Observaciones y pronósticos meteorológicos de más de 4000 aeropuertos (mensajes METAR y TAF).

Los puntos amarillos y rojos representan las estaciones disponibles.

Ponga el ratón en el punto deseado para ver el nombre de la estación.

Haga clic para ver las observaciones y los pronósticos meteorológicos.

Para cambiar el mapa : haga clic en los botones verdes con una cruz de color negro para hacer un zoom, en el botón verde con un guión para alejar o en las flechas verdes para mapas adyacentes.


METAR-TAF: